sensor_id;sensor_type;location;lat;lon;timestamp;P1;durP1;ratioP1;P2;durP2;ratioP2
16478;SDS011;8350;52.316;10.530;2023-04-25T00:00:35;7.72;;;5.20;;
16478;SDS011;8350;52.316;10.530;2023-04-25T00:03:02;11.95;;;5.68;;
16478;SDS011;8350;52.316;10.530;2023-04-25T00:05:32;8.75;;;4.65;;
16478;SDS011;8350;52.316;10.530;2023-04-25T00:08:02;8.27;;;5.28;;
16478;SDS011;8350;52.316;10.530;2023-04-25T00:10:29;7.00;;;5.40;;
16478;SDS011;8350;52.316;10.530;2023-04-25T00:12:57;10.13;;;5.07;;
16478;SDS011;8350;52.316;10.530;2023-04-25T00:15:24;8.23;;;5.18;;
16478;SDS011;8350;52.316;10.530;2023-04-25T00:17:51;9.80;;;5.45;;
16478;SDS011;8350;52.316;10.530;2023-04-25T00:20:18;8.50;;;4.63;;
16478;SDS011;8350;52.316;10.530;2023-04-25T00:22:48;7.07;;;4.85;;
16478;SDS011;8350;52.316;10.530;2023-04-25T00:25:15;7.07;;;4.93;;
16478;SDS011;8350;52.316;10.530;2023-04-25T00:27:42;12.43;;;5.70;;
16478;SDS011;8350;52.316;10.530;2023-04-25T00:30:09;12.88;;;5.10;;
16478;SDS011;8350;52.316;10.530;2023-04-25T00:32:36;10.23;;;4.57;;
16478;SDS011;8350;52.316;10.530;2023-04-25T00:35:03;11.35;;;5.57;;
16478;SDS011;8350;52.316;10.530;2023-04-25T00:37:34;8.90;;;5.35;;
16478;SDS011;8350;52.316;10.530;2023-04-25T00:40:02;7.78;;;4.82;;
16478;SDS011;8350;52.316;10.530;2023-04-25T00:42:33;9.38;;;5.43;;
16478;SDS011;8350;52.316;10.530;2023-04-25T00:45:04;10.27;;;5.60;;
16478;SDS011;8350;52.316;10.530;2023-04-25T00:47:36;10.38;;;5.20;;
16478;SDS011;8350;52.316;10.530;2023-04-25T00:50:04;8.50;;;5.05;;
16478;SDS011;8350;52.316;10.530;2023-04-25T00:52:31;11.45;;;6.18;;
16478;SDS011;8350;52.316;10.530;2023-04-25T00:54:58;10.75;;;4.93;;
16478;SDS011;8350;52.316;10.530;2023-04-25T00:57:26;8.35;;;5.10;;
16478;SDS011;8350;52.316;10.530;2023-04-25T00:59:53;9.25;;;5.13;;
16478;SDS011;8350;52.316;10.530;2023-04-25T01:02:21;7.25;;;5.32;;
16478;SDS011;8350;52.316;10.530;2023-04-25T01:04:48;7.82;;;4.93;;
16478;SDS011;8350;52.316;10.530;2023-04-25T01:07:15;9.40;;;4.72;;
16478;SDS011;8350;52.316;10.530;2023-04-25T01:09:42;7.82;;;4.82;;
16478;SDS011;8350;52.316;10.530;2023-04-25T01:12:09;11.23;;;4.80;;
16478;SDS011;8350;52.316;10.530;2023-04-25T01:14:37;8.57;;;5.32;;
16478;SDS011;8350;52.316;10.530;2023-04-25T01:17:05;5.97;;;4.53;;
16478;SDS011;8350;52.316;10.530;2023-04-25T01:19:34;9.38;;;4.93;;
16478;SDS011;8350;52.316;10.530;2023-04-25T01:22:03;12.63;;;4.93;;
16478;SDS011;8350;52.316;10.530;2023-04-25T01:24:30;7.82;;;4.63;;
16478;SDS011;8350;52.316;10.530;2023-04-25T01:26:58;15.13;;;6.20;;
16478;SDS011;8350;52.316;10.530;2023-04-25T01:29:27;10.88;;;5.00;;
16478;SDS011;8350;52.316;10.530;2023-04-25T01:31:54;11.50;;;5.15;;
16478;SDS011;8350;52.316;10.530;2023-04-25T01:34:23;10.18;;;5.18;;
16478;SDS011;8350;52.316;10.530;2023-04-25T01:36:50;6.95;;;4.63;;
16478;SDS011;8350;52.316;10.530;2023-04-25T01:39:20;7.38;;;5.10;;
16478;SDS011;8350;52.316;10.530;2023-04-25T01:41:47;9.10;;;5.13;;
16478;SDS011;8350;52.316;10.530;2023-04-25T01:44:15;10.73;;;4.93;;
16478;SDS011;8350;52.316;10.530;2023-04-25T01:46:42;10.82;;;5.90;;
16478;SDS011;8350;52.316;10.530;2023-04-25T01:49:09;8.88;;;5.07;;
16478;SDS011;8350;52.316;10.530;2023-04-25T01:51:36;16.35;;;5.80;;
16478;SDS011;8350;52.316;10.530;2023-04-25T01:54:03;10.60;;;5.18;;
16478;SDS011;8350;52.316;10.530;2023-04-25T01:56:32;11.15;;;5.22;;
16478;SDS011;8350;52.316;10.530;2023-04-25T01:58:59;9.60;;;5.00;;
16478;SDS011;8350;52.316;10.530;2023-04-25T02:01:26;10.48;;;5.30;;
16478;SDS011;8350;52.316;10.530;2023-04-25T02:03:52;11.35;;;5.47;;
16478;SDS011;8350;52.316;10.530;2023-04-25T02:06:19;11.80;;;5.50;;
16478;SDS011;8350;52.316;10.530;2023-04-25T02:08:47;7.30;;;5.18;;
16478;SDS011;8350;52.316;10.530;2023-04-25T02:11:14;23.33;;;5.95;;
16478;SDS011;8350;52.316;10.530;2023-04-25T02:13:42;11.40;;;6.15;;
16478;SDS011;8350;52.316;10.530;2023-04-25T02:16:09;11.40;;;6.28;;
16478;SDS011;8350;52.316;10.530;2023-04-25T02:18:36;9.98;;;5.70;;
16478;SDS011;8350;52.316;10.530;2023-04-25T02:21:04;10.70;;;6.45;;
16478;SDS011;8350;52.316;10.530;2023-04-25T02:23:31;11.52;;;6.07;;
16478;SDS011;8350;52.316;10.530;2023-04-25T02:25:58;8.45;;;6.00;;
16478;SDS011;8350;52.316;10.530;2023-04-25T02:28:25;8.80;;;5.90;;
16478;SDS011;8350;52.316;10.530;2023-04-25T02:30:53;9.45;;;6.00;;
16478;SDS011;8350;52.316;10.530;2023-04-25T02:33:20;11.48;;;6.60;;
16478;SDS011;8350;52.316;10.530;2023-04-25T02:35:47;13.43;;;6.32;;
16478;SDS011;8350;52.316;10.530;2023-04-25T02:38:15;9.13;;;6.22;;
16478;SDS011;8350;52.316;10.530;2023-04-25T02:40:42;9.60;;;6.35;;
16478;SDS011;8350;52.316;10.530;2023-04-25T02:43:11;12.15;;;7.38;;
16478;SDS011;8350;52.316;10.530;2023-04-25T02:45:38;8.60;;;7.15;;
16478;SDS011;8350;52.316;10.530;2023-04-25T02:48:06;11.00;;;7.38;;
16478;SDS011;8350;52.316;10.530;2023-04-25T02:50:33;10.27;;;7.07;;
16478;SDS011;8350;52.316;10.530;2023-04-25T02:53:00;9.80;;;6.05;;
16478;SDS011;8350;52.316;10.530;2023-04-25T02:55:27;11.45;;;8.00;;
16478;SDS011;8350;52.316;10.530;2023-04-25T02:57:54;13.25;;;7.70;;
16478;SDS011;8350;52.316;10.530;2023-04-25T03:00:21;10.85;;;7.32;;
16478;SDS011;8350;52.316;10.530;2023-04-25T03:02:48;12.50;;;7.20;;
16478;SDS011;8350;52.316;10.530;2023-04-25T03:05:17;10.20;;;7.78;;
16478;SDS011;8350;52.316;10.530;2023-04-25T03:07:44;15.80;;;8.77;;
16478;SDS011;8350;52.316;10.530;2023-04-25T03:10:11;11.18;;;8.02;;
16478;SDS011;8350;52.316;10.530;2023-04-25T03:12:38;12.98;;;8.57;;
16478;SDS011;8350;52.316;10.530;2023-04-25T03:15:05;20.45;;;9.63;;
16478;SDS011;8350;52.316;10.530;2023-04-25T03:17:33;14.40;;;8.00;;
16478;SDS011;8350;52.316;10.530;2023-04-25T03:20:00;13.63;;;9.45;;
16478;SDS011;8350;52.316;10.530;2023-04-25T03:22:30;13.75;;;8.80;;
16478;SDS011;8350;52.316;10.530;2023-04-25T03:24:59;14.73;;;9.02;;
16478;SDS011;8350;52.316;10.530;2023-04-25T03:27:26;12.05;;;9.38;;
16478;SDS011;8350;52.316;10.530;2023-04-25T03:29:53;14.70;;;9.48;;
16478;SDS011;8350;52.316;10.530;2023-04-25T03:32:20;16.88;;;10.13;;
16478;SDS011;8350;52.316;10.530;2023-04-25T03:34:47;14.38;;;9.48;;
16478;SDS011;8350;52.316;10.530;2023-04-25T03:37:14;18.95;;;9.93;;
16478;SDS011;8350;52.316;10.530;2023-04-25T03:39:43;16.85;;;10.35;;
16478;SDS011;8350;52.316;10.530;2023-04-25T03:42:10;14.70;;;8.57;;
16478;SDS011;8350;52.316;10.530;2023-04-25T03:44:37;18.92;;;8.80;;
16478;SDS011;8350;52.316;10.530;2023-04-25T03:49:32;9.05;;;6.15;;
16478;SDS011;8350;52.316;10.530;2023-04-25T03:52:00;14.25;;;6.25;;
16478;SDS011;8350;52.316;10.530;2023-04-25T03:54:32;12.32;;;6.60;;
16478;SDS011;8350;52.316;10.530;2023-04-25T03:57:00;13.43;;;6.82;;
16478;SDS011;8350;52.316;10.530;2023-04-25T03:59:27;13.80;;;6.90;;
16478;SDS011;8350;52.316;10.530;2023-04-25T04:01:54;13.88;;;6.18;;
16478;SDS011;8350;52.316;10.530;2023-04-25T04:04:21;17.60;;;6.97;;
16478;SDS011;8350;52.316;10.530;2023-04-25T04:06:48;16.20;;;6.65;;
16478;SDS011;8350;52.316;10.530;2023-04-25T04:09:15;15.10;;;5.90;;
16478;SDS011;8350;52.316;10.530;2023-04-25T04:11:43;16.50;;;6.30;;
16478;SDS011;8350;52.316;10.530;2023-04-25T04:14:11;16.38;;;6.07;;
16478;SDS011;8350;52.316;10.530;2023-04-25T04:16:38;17.75;;;5.47;;
16478;SDS011;8350;52.316;10.530;2023-04-25T04:19:04;16.02;;;5.30;;
16478;SDS011;8350;52.316;10.530;2023-04-25T04:21:31;17.08;;;6.32;;
16478;SDS011;8350;52.316;10.530;2023-04-25T04:24:01;15.27;;;5.80;;
16478;SDS011;8350;52.316;10.530;2023-04-25T04:26:28;12.23;;;5.47;;
16478;SDS011;8350;52.316;10.530;2023-04-25T04:28:57;16.92;;;5.55;;
16478;SDS011;8350;52.316;10.530;2023-04-25T04:31:25;13.60;;;6.45;;
16478;SDS011;8350;52.316;10.530;2023-04-25T04:33:52;15.27;;;5.38;;
16478;SDS011;8350;52.316;10.530;2023-04-25T04:36:19;15.45;;;5.80;;
16478;SDS011;8350;52.316;10.530;2023-04-25T04:38:46;15.23;;;6.10;;
16478;SDS011;8350;52.316;10.530;2023-04-25T04:41:13;18.30;;;5.47;;
16478;SDS011;8350;52.316;10.530;2023-04-25T04:43:43;13.77;;;4.90;;
16478;SDS011;8350;52.316;10.530;2023-04-25T04:46:11;13.40;;;4.88;;
16478;SDS011;8350;52.316;10.530;2023-04-25T04:48:41;18.67;;;5.93;;
16478;SDS011;8350;52.316;10.530;2023-04-25T04:51:09;17.35;;;5.28;;
16478;SDS011;8350;52.316;10.530;2023-04-25T04:53:36;16.33;;;4.57;;
16478;SDS011;8350;52.316;10.530;2023-04-25T04:56:03;15.93;;;5.18;;
16478;SDS011;8350;52.316;10.530;2023-04-25T04:58:30;12.30;;;4.70;;
16478;SDS011;8350;52.316;10.530;2023-04-25T05:00:57;19.63;;;5.97;;
16478;SDS011;8350;52.316;10.530;2023-04-25T05:03:24;18.42;;;5.28;;
16478;SDS011;8350;52.316;10.530;2023-04-25T05:05:53;17.08;;;5.60;;
16478;SDS011;8350;52.316;10.530;2023-04-25T05:08:20;16.52;;;6.13;;
16478;SDS011;8350;52.316;10.530;2023-04-25T05:10:49;13.73;;;5.65;;
16478;SDS011;8350;52.316;10.530;2023-04-25T05:13:16;16.08;;;5.22;;
16478;SDS011;8350;52.316;10.530;2023-04-25T05:15:45;16.88;;;4.85;;
16478;SDS011;8350;52.316;10.530;2023-04-25T05:18:12;12.68;;;4.53;;
16478;SDS011;8350;52.316;10.530;2023-04-25T05:20:39;16.73;;;5.25;;
16478;SDS011;8350;52.316;10.530;2023-04-25T05:23:08;19.63;;;5.50;;
16478;SDS011;8350;52.316;10.530;2023-04-25T05:25:34;11.43;;;5.15;;
16478;SDS011;8350;52.316;10.530;2023-04-25T05:28:04;11.93;;;4.55;;
16478;SDS011;8350;52.316;10.530;2023-04-25T05:30:31;13.38;;;5.60;;
16478;SDS011;8350;52.316;10.530;2023-04-25T05:32:58;15.75;;;5.32;;
16478;SDS011;8350;52.316;10.530;2023-04-25T05:35:24;11.13;;;4.55;;
16478;SDS011;8350;52.316;10.530;2023-04-25T05:37:51;14.57;;;5.30;;
16478;SDS011;8350;52.316;10.530;2023-04-25T05:40:20;14.82;;;5.07;;
16478;SDS011;8350;52.316;10.530;2023-04-25T05:42:47;13.07;;;4.03;;
16478;SDS011;8350;52.316;10.530;2023-04-25T05:45:14;15.65;;;4.32;;
16478;SDS011;8350;52.316;10.530;2023-04-25T05:47:42;15.60;;;5.60;;
16478;SDS011;8350;52.316;10.530;2023-04-25T05:50:10;13.18;;;4.53;;
16478;SDS011;8350;52.316;10.530;2023-04-25T05:52:37;17.15;;;4.97;;
16478;SDS011;8350;52.316;10.530;2023-04-25T05:55:04;15.55;;;4.50;;
16478;SDS011;8350;52.316;10.530;2023-04-25T05:57:33;17.77;;;5.53;;
16478;SDS011;8350;52.316;10.530;2023-04-25T06:00:07;17.48;;;5.32;;
16478;SDS011;8350;52.316;10.530;2023-04-25T06:02:35;18.33;;;5.10;;
16478;SDS011;8350;52.316;10.530;2023-04-25T06:05:02;11.45;;;3.75;;
16478;SDS011;8350;52.316;10.530;2023-04-25T06:07:29;15.13;;;4.10;;
16478;SDS011;8350;52.316;10.530;2023-04-25T06:09:56;16.95;;;4.95;;
16478;SDS011;8350;52.316;10.530;2023-04-25T06:12:23;14.25;;;4.38;;
16478;SDS011;8350;52.316;10.530;2023-04-25T06:14:51;13.95;;;4.30;;
16478;SDS011;8350;52.316;10.530;2023-04-25T06:17:19;15.98;;;6.07;;
16478;SDS011;8350;52.316;10.530;2023-04-25T06:19:48;13.25;;;5.00;;
16478;SDS011;8350;52.316;10.530;2023-04-25T06:22:15;13.18;;;4.75;;
16478;SDS011;8350;52.316;10.530;2023-04-25T06:24:42;11.70;;;4.28;;
16478;SDS011;8350;52.316;10.530;2023-04-25T06:27:18;13.40;;;4.25;;
16478;SDS011;8350;52.316;10.530;2023-04-25T06:29:44;13.90;;;4.70;;
16478;SDS011;8350;52.316;10.530;2023-04-25T06:32:13;14.93;;;4.40;;
16478;SDS011;8350;52.316;10.530;2023-04-25T06:34:40;16.95;;;4.22;;
16478;SDS011;8350;52.316;10.530;2023-04-25T06:37:06;9.90;;;3.85;;
16478;SDS011;8350;52.316;10.530;2023-04-25T06:39:34;13.73;;;4.78;;
16478;SDS011;8350;52.316;10.530;2023-04-25T06:42:02;13.25;;;4.20;;
16478;SDS011;8350;52.316;10.530;2023-04-25T06:44:29;11.05;;;4.38;;
16478;SDS011;8350;52.316;10.530;2023-04-25T06:46:56;13.38;;;4.82;;
16478;SDS011;8350;52.316;10.530;2023-04-25T06:49:25;14.45;;;4.38;;
16478;SDS011;8350;52.316;10.530;2023-04-25T06:51:53;15.15;;;5.25;;
16478;SDS011;8350;52.316;10.530;2023-04-25T06:54:20;12.43;;;5.32;;
16478;SDS011;8350;52.316;10.530;2023-04-25T06:56:47;11.73;;;3.22;;
16478;SDS011;8350;52.316;10.530;2023-04-25T06:59:14;20.02;;;5.25;;
16478;SDS011;8350;52.316;10.530;2023-04-25T07:01:41;10.55;;;4.43;;
16478;SDS011;8350;52.316;10.530;2023-04-25T07:04:08;8.77;;;3.70;;
16478;SDS011;8350;52.316;10.530;2023-04-25T07:06:37;14.43;;;3.45;;
16478;SDS011;8350;52.316;10.530;2023-04-25T07:09:07;14.02;;;3.65;;
16478;SDS011;8350;52.316;10.530;2023-04-25T07:11:34;9.35;;;3.80;;
16478;SDS011;8350;52.316;10.530;2023-04-25T07:14:02;9.27;;;2.55;;
16478;SDS011;8350;52.316;10.530;2023-04-25T07:16:28;6.82;;;2.55;;
16478;SDS011;8350;52.316;10.530;2023-04-25T07:18:55;9.73;;;2.90;;
16478;SDS011;8350;52.316;10.530;2023-04-25T07:21:22;7.72;;;2.70;;
16478;SDS011;8350;52.316;10.530;2023-04-25T07:23:50;9.35;;;3.17;;
16478;SDS011;8350;52.316;10.530;2023-04-25T07:26:17;7.72;;;2.88;;
16478;SDS011;8350;52.316;10.530;2023-04-25T07:28:44;8.05;;;2.90;;
16478;SDS011;8350;52.316;10.530;2023-04-25T07:31:14;8.80;;;3.17;;
16478;SDS011;8350;52.316;10.530;2023-04-25T07:33:43;9.57;;;3.47;;
16478;SDS011;8350;52.316;10.530;2023-04-25T07:36:10;9.63;;;2.55;;
16478;SDS011;8350;52.316;10.530;2023-04-25T07:38:37;8.20;;;2.92;;
16478;SDS011;8350;52.316;10.530;2023-04-25T07:41:05;9.07;;;2.60;;
16478;SDS011;8350;52.316;10.530;2023-04-25T07:43:37;15.63;;;3.70;;
16478;SDS011;8350;52.316;10.530;2023-04-25T07:46:04;7.75;;;3.05;;
16478;SDS011;8350;52.316;10.530;2023-04-25T07:48:31;8.55;;;2.67;;
16478;SDS011;8350;52.316;10.530;2023-04-25T07:51:01;9.05;;;3.53;;
16478;SDS011;8350;52.316;10.530;2023-04-25T07:53:29;8.75;;;3.00;;
16478;SDS011;8350;52.316;10.530;2023-04-25T07:55:57;5.55;;;2.45;;
16478;SDS011;8350;52.316;10.530;2023-04-25T07:58:25;9.73;;;2.80;;
16478;SDS011;8350;52.316;10.530;2023-04-25T08:00:52;8.23;;;2.42;;
16478;SDS011;8350;52.316;10.530;2023-04-25T08:03:19;12.25;;;3.78;;
16478;SDS011;8350;52.316;10.530;2023-04-25T08:05:49;8.35;;;2.58;;
16478;SDS011;8350;52.316;10.530;2023-04-25T08:08:16;9.20;;;2.67;;
16478;SDS011;8350;52.316;10.530;2023-04-25T08:10:43;9.95;;;2.50;;
16478;SDS011;8350;52.316;10.530;2023-04-25T08:13:10;10.05;;;2.40;;
16478;SDS011;8350;52.316;10.530;2023-04-25T08:15:38;8.05;;;2.67;;
16478;SDS011;8350;52.316;10.530;2023-04-25T08:18:05;8.88;;;2.78;;
16478;SDS011;8350;52.316;10.530;2023-04-25T08:20:35;10.20;;;3.13;;
16478;SDS011;8350;52.316;10.530;2023-04-25T08:23:02;12.10;;;3.20;;
16478;SDS011;8350;52.316;10.530;2023-04-25T08:25:29;10.00;;;3.05;;
16478;SDS011;8350;52.316;10.530;2023-04-25T08:27:56;12.80;;;3.72;;
16478;SDS011;8350;52.316;10.530;2023-04-25T08:30:24;6.95;;;2.33;;
16478;SDS011;8350;52.316;10.530;2023-04-25T08:32:53;8.13;;;2.33;;
16478;SDS011;8350;52.316;10.530;2023-04-25T08:35:20;5.70;;;2.67;;
16478;SDS011;8350;52.316;10.530;2023-04-25T08:37:48;9.25;;;2.60;;
16478;SDS011;8350;52.316;10.530;2023-04-25T08:40:15;8.60;;;3.15;;
16478;SDS011;8350;52.316;10.530;2023-04-25T08:42:45;10.82;;;3.70;;
16478;SDS011;8350;52.316;10.530;2023-04-25T08:45:15;10.05;;;3.05;;
16478;SDS011;8350;52.316;10.530;2023-04-25T08:47:41;7.18;;;3.03;;
16478;SDS011;8350;52.316;10.530;2023-04-25T08:50:13;8.35;;;3.10;;
16478;SDS011;8350;52.316;10.530;2023-04-25T08:52:42;7.40;;;3.22;;
16478;SDS011;8350;52.316;10.530;2023-04-25T08:55:10;10.00;;;2.97;;
16478;SDS011;8350;52.316;10.530;2023-04-25T08:57:39;6.88;;;2.70;;
16478;SDS011;8350;52.316;10.530;2023-04-25T09:00:09;8.45;;;2.17;;
16478;SDS011;8350;52.316;10.530;2023-04-25T09:02:37;6.97;;;2.42;;
16478;SDS011;8350;52.316;10.530;2023-04-25T09:05:06;10.18;;;4.13;;
16478;SDS011;8350;52.316;10.530;2023-04-25T09:07:36;6.57;;;2.95;;
16478;SDS011;8350;52.316;10.530;2023-04-25T09:10:06;12.48;;;2.60;;
16478;SDS011;8350;52.316;10.530;2023-04-25T09:12:33;7.35;;;3.42;;
16478;SDS011;8350;52.316;10.530;2023-04-25T09:15:06;6.07;;;2.30;;
16478;SDS011;8350;52.316;10.530;2023-04-25T09:17:33;8.70;;;2.65;;
16478;SDS011;8350;52.316;10.530;2023-04-25T09:20:05;5.75;;;2.45;;
16478;SDS011;8350;52.316;10.530;2023-04-25T09:22:36;6.28;;;1.90;;
16478;SDS011;8350;52.316;10.530;2023-04-25T09:25:07;4.63;;;1.92;;
16478;SDS011;8350;52.316;10.530;2023-04-25T09:27:35;8.85;;;2.85;;
16478;SDS011;8350;52.316;10.530;2023-04-25T09:30:02;5.57;;;2.63;;
16478;SDS011;8350;52.316;10.530;2023-04-25T09:32:30;6.38;;;2.95;;
16478;SDS011;8350;52.316;10.530;2023-04-25T09:34:58;7.20;;;2.15;;
16478;SDS011;8350;52.316;10.530;2023-04-25T09:37:26;8.05;;;2.05;;
16478;SDS011;8350;52.316;10.530;2023-04-25T09:39:55;6.47;;;2.30;;
16478;SDS011;8350;52.316;10.530;2023-04-25T09:42:24;9.00;;;3.05;;
16478;SDS011;8350;52.316;10.530;2023-04-25T09:44:54;4.50;;;2.22;;
16478;SDS011;8350;52.316;10.530;2023-04-25T09:47:22;3.35;;;1.85;;
16478;SDS011;8350;52.316;10.530;2023-04-25T09:49:50;4.10;;;1.73;;
16478;SDS011;8350;52.316;10.530;2023-04-25T09:52:19;6.28;;;2.15;;
16478;SDS011;8350;52.316;10.530;2023-04-25T09:54:50;8.07;;;2.08;;
16478;SDS011;8350;52.316;10.530;2023-04-25T09:57:19;5.28;;;2.25;;
16478;SDS011;8350;52.316;10.530;2023-04-25T09:59:48;6.10;;;2.20;;
16478;SDS011;8350;52.316;10.530;2023-04-25T10:02:16;5.93;;;2.40;;
16478;SDS011;8350;52.316;10.530;2023-04-25T10:04:47;2.97;;;1.60;;
16478;SDS011;8350;52.316;10.530;2023-04-25T10:07:16;4.45;;;2.40;;
16478;SDS011;8350;52.316;10.530;2023-04-25T10:09:45;10.23;;;1.90;;
16478;SDS011;8350;52.316;10.530;2023-04-25T10:12:14;8.73;;;2.33;;
16478;SDS011;8350;52.316;10.530;2023-04-25T10:14:44;3.38;;;2.00;;
16478;SDS011;8350;52.316;10.530;2023-04-25T10:17:12;5.70;;;2.05;;
16478;SDS011;8350;52.316;10.530;2023-04-25T10:19:40;4.90;;;1.60;;
16478;SDS011;8350;52.316;10.530;2023-04-25T10:22:23;4.28;;;1.98;;
16478;SDS011;8350;52.316;10.530;2023-04-25T10:24:55;5.13;;;2.28;;
16478;SDS011;8350;52.316;10.530;2023-04-25T10:27:23;6.03;;;2.13;;
16478;SDS011;8350;52.316;10.530;2023-04-25T10:30:01;4.57;;;1.92;;
16478;SDS011;8350;52.316;10.530;2023-04-25T10:32:30;7.35;;;2.30;;
16478;SDS011;8350;52.316;10.530;2023-04-25T10:34:57;4.70;;;1.85;;
16478;SDS011;8350;52.316;10.530;2023-04-25T10:37:36;4.82;;;1.90;;
16478;SDS011;8350;52.316;10.530;2023-04-25T10:40:07;4.00;;;1.98;;
16478;SDS011;8350;52.316;10.530;2023-04-25T10:42:36;5.00;;;1.90;;
16478;SDS011;8350;52.316;10.530;2023-04-25T10:45:07;5.30;;;2.08;;
16478;SDS011;8350;52.316;10.530;2023-04-25T10:47:43;4.32;;;1.60;;
16478;SDS011;8350;52.316;10.530;2023-04-25T10:50:15;7.10;;;1.60;;
16478;SDS011;8350;52.316;10.530;2023-04-25T10:52:43;7.10;;;2.00;;
16478;SDS011;8350;52.316;10.530;2023-04-25T10:55:10;1.83;;;1.20;;
16478;SDS011;8350;52.316;10.530;2023-04-25T10:57:38;5.32;;;1.95;;
16478;SDS011;8350;52.316;10.530;2023-04-25T11:00:15;4.82;;;3.42;;
16478;SDS011;8350;52.316;10.530;2023-04-25T11:02:45;5.00;;;1.83;;
16478;SDS011;8350;52.316;10.530;2023-04-25T11:05:16;4.40;;;2.10;;
16478;SDS011;8350;52.316;10.530;2023-04-25T11:07:49;4.40;;;1.60;;
16478;SDS011;8350;52.316;10.530;2023-04-25T11:10:18;4.68;;;2.25;;
16478;SDS011;8350;52.316;10.530;2023-04-25T11:12:51;6.50;;;1.60;;
16478;SDS011;8350;52.316;10.530;2023-04-25T11:15:19;5.38;;;2.10;;
16478;SDS011;8350;52.316;10.530;2023-04-25T11:17:46;8.30;;;2.15;;
16478;SDS011;8350;52.316;10.530;2023-04-25T11:20:13;5.43;;;1.55;;
16478;SDS011;8350;52.316;10.530;2023-04-25T11:22:40;5.28;;;2.00;;
16478;SDS011;8350;52.316;10.530;2023-04-25T11:25:08;5.82;;;2.17;;
16478;SDS011;8350;52.316;10.530;2023-04-25T11:27:49;4.80;;;1.98;;
16478;SDS011;8350;52.316;10.530;2023-04-25T11:30:19;4.97;;;1.65;;
16478;SDS011;8350;52.316;10.530;2023-04-25T11:32:47;6.28;;;1.85;;
16478;SDS011;8350;52.316;10.530;2023-04-25T11:35:18;5.70;;;2.25;;
16478;SDS011;8350;52.316;10.530;2023-04-25T11:37:45;5.57;;;2.55;;
16478;SDS011;8350;52.316;10.530;2023-04-25T11:40:13;6.82;;;2.40;;
16478;SDS011;8350;52.316;10.530;2023-04-25T11:42:43;4.38;;;1.88;;
16478;SDS011;8350;52.316;10.530;2023-04-25T11:45:10;5.63;;;2.00;;
16478;SDS011;8350;52.316;10.530;2023-04-25T11:47:39;7.80;;;4.18;;
16478;SDS011;8350;52.316;10.530;2023-04-25T11:50:07;7.13;;;3.33;;
16478;SDS011;8350;52.316;10.530;2023-04-25T11:52:36;5.10;;;2.17;;
16478;SDS011;8350;52.316;10.530;2023-04-25T11:55:04;6.10;;;3.25;;
16478;SDS011;8350;52.316;10.530;2023-04-25T11:57:32;5.57;;;3.20;;
16478;SDS011;8350;52.316;10.530;2023-04-25T12:00:05;7.70;;;2.85;;
16478;SDS011;8350;52.316;10.530;2023-04-25T12:02:34;6.55;;;3.03;;
16478;SDS011;8350;52.316;10.530;2023-04-25T12:05:03;11.05;;;3.88;;
16478;SDS011;8350;52.316;10.530;2023-04-25T12:07:33;7.32;;;3.47;;
16478;SDS011;8350;52.316;10.530;2023-04-25T12:10:08;7.43;;;2.42;;
16478;SDS011;8350;52.316;10.530;2023-04-25T12:12:36;11.20;;;2.80;;
16478;SDS011;8350;52.316;10.530;2023-04-25T12:15:10;4.55;;;1.95;;
16478;SDS011;8350;52.316;10.530;2023-04-25T12:17:50;3.10;;;1.65;;
16478;SDS011;8350;52.316;10.530;2023-04-25T12:20:24;5.68;;;1.50;;
16478;SDS011;8350;52.316;10.530;2023-04-25T12:22:51;2.05;;;1.25;;
16478;SDS011;8350;52.316;10.530;2023-04-25T12:25:37;4.88;;;1.67;;
16478;SDS011;8350;52.316;10.530;2023-04-25T12:28:14;3.88;;;1.45;;
16478;SDS011;8350;52.316;10.530;2023-04-25T12:30:54;7.18;;;2.05;;
16478;SDS011;8350;52.316;10.530;2023-04-25T12:33:22;3.85;;;1.90;;
16478;SDS011;8350;52.316;10.530;2023-04-25T12:35:54;9.32;;;6.28;;
16478;SDS011;8350;52.316;10.530;2023-04-25T12:38:22;8.88;;;6.57;;
16478;SDS011;8350;52.316;10.530;2023-04-25T12:40:49;3.03;;;1.90;;
16478;SDS011;8350;52.316;10.530;2023-04-25T12:43:16;7.80;;;1.80;;
16478;SDS011;8350;52.316;10.530;2023-04-25T12:48:31;5.30;;;1.92;;
16478;SDS011;8350;52.316;10.530;2023-04-25T12:50:59;2.85;;;1.40;;
16478;SDS011;8350;52.316;10.530;2023-04-25T12:53:29;3.90;;;1.70;;
16478;SDS011;8350;52.316;10.530;2023-04-25T12:55:56;1.70;;;0.75;;
16478;SDS011;8350;52.316;10.530;2023-04-25T12:58:23;2.90;;;1.08;;
16478;SDS011;8350;52.316;10.530;2023-04-25T13:00:50;2.25;;;1.40;;
16478;SDS011;8350;52.316;10.530;2023-04-25T13:03:17;4.70;;;1.38;;
16478;SDS011;8350;52.316;10.530;2023-04-25T13:05:44;4.25;;;1.10;;
16478;SDS011;8350;52.316;10.530;2023-04-25T13:08:12;4.20;;;0.95;;
16478;SDS011;8350;52.316;10.530;2023-04-25T13:10:39;2.17;;;0.93;;
16478;SDS011;8350;52.316;10.530;2023-04-25T13:13:06;1.83;;;0.90;;
16478;SDS011;8350;52.316;10.530;2023-04-25T13:15:33;3.15;;;1.27;;
16478;SDS011;8350;52.316;10.530;2023-04-25T13:18:03;3.70;;;1.83;;
16478;SDS011;8350;52.316;10.530;2023-04-25T13:20:31;3.45;;;1.30;;
16478;SDS011;8350;52.316;10.530;2023-04-25T13:22:58;3.22;;;1.10;;
16478;SDS011;8350;52.316;10.530;2023-04-25T13:25:27;3.55;;;1.30;;
16478;SDS011;8350;52.316;10.530;2023-04-25T13:27:56;3.20;;;1.33;;
16478;SDS011;8350;52.316;10.530;2023-04-25T13:30:22;3.58;;;1.55;;
16478;SDS011;8350;52.316;10.530;2023-04-25T13:32:49;3.53;;;1.40;;
16478;SDS011;8350;52.316;10.530;2023-04-25T13:35:17;5.43;;;1.42;;
16478;SDS011;8350;52.316;10.530;2023-04-25T13:37:44;6.30;;;1.50;;
16478;SDS011;8350;52.316;10.530;2023-04-25T13:40:10;2.85;;;1.23;;
16478;SDS011;8350;52.316;10.530;2023-04-25T13:42:42;2.55;;;0.80;;
16478;SDS011;8350;52.316;10.530;2023-04-25T13:45:09;2.20;;;0.93;;
16478;SDS011;8350;52.316;10.530;2023-04-25T13:47:36;2.17;;;0.68;;
16478;SDS011;8350;52.316;10.530;2023-04-25T13:50:03;2.13;;;0.80;;
16478;SDS011;8350;52.316;10.530;2023-04-25T13:52:32;3.85;;;1.05;;
16478;SDS011;8350;52.316;10.530;2023-04-25T13:55:02;2.03;;;0.80;;
16478;SDS011;8350;52.316;10.530;2023-04-25T13:57:32;4.00;;;0.90;;
16478;SDS011;8350;52.316;10.530;2023-04-25T14:00:01;3.22;;;1.80;;
16478;SDS011;8350;52.316;10.530;2023-04-25T14:02:32;1.73;;;1.02;;
16478;SDS011;8350;52.316;10.530;2023-04-25T14:04:58;3.22;;;0.82;;
16478;SDS011;8350;52.316;10.530;2023-04-25T14:07:25;2.50;;;1.02;;
16478;SDS011;8350;52.316;10.530;2023-04-25T14:09:57;3.70;;;1.00;;
16478;SDS011;8350;52.316;10.530;2023-04-25T14:12:24;3.45;;;1.00;;
16478;SDS011;8350;52.316;10.530;2023-04-25T14:14:51;1.90;;;0.73;;
16478;SDS011;8350;52.316;10.530;2023-04-25T14:17:19;3.88;;;0.93;;
16478;SDS011;8350;52.316;10.530;2023-04-25T14:19:46;5.50;;;0.93;;
16478;SDS011;8350;52.316;10.530;2023-04-25T14:22:13;3.80;;;1.00;;
16478;SDS011;8350;52.316;10.530;2023-04-25T14:24:41;3.35;;;1.50;;
16478;SDS011;8350;52.316;10.530;2023-04-25T14:27:10;4.78;;;1.27;;
16478;SDS011;8350;52.316;10.530;2023-04-25T14:29:37;4.35;;;1.23;;
16478;SDS011;8350;52.316;10.530;2023-04-25T14:32:04;4.13;;;1.15;;
16478;SDS011;8350;52.316;10.530;2023-04-25T14:34:33;4.63;;;1.45;;
16478;SDS011;8350;52.316;10.530;2023-04-25T14:36:59;1.85;;;1.17;;
16478;SDS011;8350;52.316;10.530;2023-04-25T14:39:26;4.70;;;1.40;;
16478;SDS011;8350;52.316;10.530;2023-04-25T14:41:53;2.42;;;1.25;;
16478;SDS011;8350;52.316;10.530;2023-04-25T14:44:21;7.28;;;1.70;;
16478;SDS011;8350;52.316;10.530;2023-04-25T14:46:48;2.92;;;1.38;;
16478;SDS011;8350;52.316;10.530;2023-04-25T14:49:16;2.83;;;1.13;;
16478;SDS011;8350;52.316;10.530;2023-04-25T14:51:51;3.75;;;1.48;;
16478;SDS011;8350;52.316;10.530;2023-04-25T14:54:18;3.15;;;1.17;;